Abbott, Mississippi
Current Conditions -  °F | °C
As of 8:58 PM on Monday 20 Oct 2014 (Local Time) from KCBM Reporting Station
Clear Clear  
Wind Chill: 55°   Ceiling: Unl
Heat Index: 55°   Visibility: 10mi
Dew Point: 53°   Wind: 0mph
Humidity: 93%   Direction: NA
Pressure: 30.04"   Gusts: NA
Location:  33.6681°N, 88.7618°W
Report Text: KCBM 210158Z AUTO 00000KT 10SM CLR 13/12 A3004 RMK AO2 SLP175 T01270116 $
Loading
Personal Weather Stations






























Interactive Weather Map
Tropical Storm Tracking
New forecast layout! Learn more

10-Day Weather Forecast

Advertisements
Track Severe Weather on mobile